createdAt,value
2022-09-14T00:04:21.552Z,18.50
2022-09-14T00:09:29.576Z,13.50
2022-09-14T00:14:38.067Z,13.70
2022-09-14T00:19:46.132Z,16.50
2022-09-14T00:24:57.938Z,15.80
2022-09-14T00:30:12.411Z,15.70
2022-09-14T00:35:21.351Z,14.40
2022-09-14T00:40:29.647Z,19.40
2022-09-14T00:45:43.203Z,15.70
2022-09-14T00:50:52.109Z,19.50
2022-09-14T00:56:00.910Z,13.00
2022-09-14T01:01:10.620Z,13.40
2022-09-14T01:06:31.536Z,16.20
2022-09-14T01:11:52.758Z,16.70
2022-09-14T01:17:08.352Z,15.80
2022-09-14T01:22:25.384Z,16.90
2022-09-14T01:27:36.475Z,15.60
2022-09-14T01:32:54.346Z,16.10
2022-09-14T01:38:07.264Z,16.70
2022-09-14T01:43:21.928Z,14.00
2022-09-14T01:48:33.925Z,16.30
2022-09-14T01:53:45.361Z,15.60
2022-09-14T01:58:57.455Z,15.80
2022-09-14T02:04:12.631Z,16.50
2022-09-14T02:09:27.364Z,17.20
2022-09-14T02:14:38.028Z,16.40
2022-09-14T02:20:02.347Z,19.40
2022-09-14T02:25:13.645Z,15.20
2022-09-14T02:30:23.348Z,15.20
2022-09-14T02:35:38.326Z,18.10
2022-09-14T02:40:53.770Z,14.60
2022-09-14T02:46:10.679Z,16.60
2022-09-14T02:51:27.905Z,17.60
2022-09-14T02:56:37.762Z,16.80
2022-09-14T03:01:46.009Z,18.30
2022-09-14T03:06:54.274Z,16.90
2022-09-14T03:12:03.597Z,16.60
2022-09-14T03:17:11.481Z,18.50
2022-09-14T03:22:23.346Z,19.30
2022-09-14T03:27:45.618Z,17.90
2022-09-14T03:32:53.542Z,16.30
2022-09-14T03:38:03.505Z,17.10
2022-09-14T03:43:20.891Z,17.90
2022-09-14T03:48:28.692Z,18.40
2022-09-14T03:53:37.675Z,15.30
2022-09-14T03:58:47.413Z,17.10
2022-09-14T04:04:11.058Z,17.30
2022-09-14T04:09:20.818Z,16.10
2022-09-14T04:14:34.902Z,17.50
2022-09-14T04:19:46.829Z,17.40
2022-09-14T04:24:55.158Z,16.30
2022-09-14T04:30:04.523Z,17.80
2022-09-14T04:35:13.914Z,17.80
2022-09-14T04:40:22.881Z,21.20
2022-09-14T04:45:32.439Z,19.00
2022-09-14T04:50:50.354Z,18.90
2022-09-14T04:56:03.228Z,17.60
2022-09-14T05:01:13.296Z,20.80
2022-09-14T05:06:23.737Z,16.70
2022-09-14T05:11:35.032Z,20.20
2022-09-14T05:22:06.170Z,21.30
2022-09-14T05:27:18.186Z,19.80
2022-09-14T05:32:30.451Z,34.30
2022-09-14T05:37:40.109Z,20.00
2022-09-14T05:42:50.027Z,21.20
2022-09-14T05:47:58.263Z,22.10
2022-09-14T05:53:10.748Z,23.70
2022-09-14T05:58:25.916Z,15.70
2022-09-14T06:03:37.668Z,18.40
2022-09-14T06:08:47.128Z,14.00
2022-09-14T06:13:57.446Z,16.50
2022-09-14T06:19:08.953Z,16.90
2022-09-14T06:24:19.570Z,13.60
2022-09-14T06:29:34.024Z,11.10
2022-09-14T06:34:43.807Z,14.70
2022-09-14T06:39:54.261Z,12.90
2022-09-14T06:45:08.128Z,15.40
2022-09-14T06:50:21.266Z,11.70
2022-09-14T06:55:38.634Z,12.30
2022-09-14T07:00:47.886Z,9.10
2022-09-14T07:06:02.646Z,9.90
2022-09-14T07:11:13.420Z,6.30
2022-09-14T07:16:21.720Z,9.50
2022-09-14T07:21:31.367Z,10.10
2022-09-14T07:26:44.920Z,9.50
2022-09-14T07:32:02.840Z,7.80
2022-09-14T07:37:22.094Z,10.30
2022-09-14T07:42:29.612Z,9.20
2022-09-14T07:47:38.170Z,8.50
2022-09-14T07:52:47.478Z,9.20
2022-09-14T07:58:04.860Z,7.50
2022-09-14T08:03:12.825Z,10.80
2022-09-14T08:08:22.879Z,8.80
2022-09-14T08:13:33.387Z,6.30
2022-09-14T08:18:41.779Z,8.40
2022-09-14T08:23:54.379Z,9.70
2022-09-14T08:29:18.177Z,7.90
2022-09-14T08:34:26.490Z,8.00
2022-09-14T08:39:37.673Z,7.30
2022-09-14T08:44:51.302Z,9.80
2022-09-14T08:50:06.627Z,10.50
2022-09-14T08:55:36.261Z,8.60
2022-09-14T09:00:48.430Z,8.80
2022-09-14T09:06:04.833Z,10.30
2022-09-14T09:11:20.108Z,7.30
2022-09-14T09:16:36.704Z,7.30
2022-09-14T09:21:48.486Z,8.90
2022-09-14T09:26:56.614Z,7.80
2022-09-14T09:32:06.149Z,6.70
2022-09-14T09:37:18.920Z,8.30
2022-09-14T09:42:28.977Z,6.60
2022-09-14T09:47:39.797Z,9.80
2022-09-14T09:52:53.711Z,7.90
2022-09-14T09:58:25.092Z,7.10
2022-09-14T10:03:37.982Z,5.20
2022-09-14T10:08:51.699Z,6.60
2022-09-14T10:14:32.987Z,7.70
2022-09-14T10:19:40.191Z,5.90
2022-09-14T10:24:56.824Z,8.30
2022-09-14T10:30:10.706Z,7.10
2022-09-14T10:35:25.886Z,9.50
2022-09-14T10:40:54.431Z,8.00
2022-09-14T10:46:41.451Z,6.40
2022-09-14T10:59:12.116Z,7.30
2022-09-14T11:04:59.943Z,7.20
2022-09-14T11:10:32.763Z,6.10
2022-09-14T11:16:27.222Z,6.10
2022-09-14T11:27:50.282Z,6.20
2022-09-14T11:33:09.781Z,7.30
2022-09-14T11:38:39.303Z,8.30
2022-09-14T11:43:55.444Z,8.00
2022-09-14T11:49:17.270Z,6.70
2022-09-14T11:54:41.489Z,7.30
2022-09-14T12:00:14.862Z,8.80
2022-09-14T12:05:40.196Z,8.70
2022-09-14T12:11:31.452Z,9.00
2022-09-14T12:17:38.952Z,7.20
2022-09-14T12:22:49.381Z,6.90
2022-09-14T12:27:58.077Z,7.10
2022-09-14T12:33:05.914Z,6.90
2022-09-14T12:39:05.925Z,6.10
2022-09-14T12:44:36.658Z,6.20
2022-09-14T12:49:45.058Z,5.90
2022-09-14T12:55:09.261Z,6.00
2022-09-14T13:00:27.353Z,5.90
2022-09-14T13:05:36.401Z,4.80
2022-09-14T13:10:57.742Z,4.80
2022-09-14T13:16:09.105Z,7.00
2022-09-14T13:21:25.660Z,6.20
2022-09-14T13:26:38.639Z,6.90
2022-09-14T13:31:49.102Z,6.50
2022-09-14T13:37:01.543Z,7.50
2022-09-14T13:42:12.520Z,6.20
2022-09-14T13:47:25.097Z,7.20
2022-09-14T13:53:01.234Z,9.60
2022-09-14T14:03:44.167Z,8.80
2022-09-14T14:08:59.424Z,8.60
2022-09-14T14:14:31.513Z,7.10
2022-09-14T14:19:43.980Z,7.60
2022-09-14T14:30:24.072Z,5.60
2022-09-14T14:41:09.974Z,4.50
2022-09-14T14:46:19.179Z,6.10
2022-09-14T14:51:29.920Z,4.60
2022-09-14T14:56:38.135Z,6.10
2022-09-14T15:01:52.477Z,4.70
2022-09-14T15:07:00.568Z,4.40
2022-09-14T15:12:08.494Z,4.60
2022-09-14T15:17:18.007Z,4.40
2022-09-14T15:22:26.362Z,6.70
2022-09-14T15:27:34.669Z,5.40
2022-09-14T15:32:42.212Z,4.20
2022-09-14T15:37:52.135Z,4.40
2022-09-14T15:43:09.110Z,5.20
2022-09-14T15:48:18.855Z,5.60
2022-09-14T15:53:29.859Z,5.70
2022-09-14T15:58:37.892Z,5.30
2022-09-14T16:03:46.183Z,6.80
2022-09-14T16:08:54.431Z,7.20
2022-09-14T16:14:02.547Z,5.40
2022-09-14T16:19:20.749Z,6.20
2022-09-14T16:24:29.612Z,5.80
2022-09-14T16:29:39.621Z,4.80
2022-09-14T16:34:47.358Z,5.40
2022-09-14T16:39:54.768Z,5.70
2022-09-14T16:45:06.481Z,7.00
2022-09-14T16:50:16.061Z,4.50
2022-09-14T16:55:23.442Z,5.80
2022-09-14T17:00:36.315Z,5.20
2022-09-14T17:05:43.952Z,5.50
2022-09-14T17:10:54.908Z,5.50
2022-09-14T17:16:09.385Z,5.30
2022-09-14T17:21:19.369Z,5.80
2022-09-14T17:26:32.447Z,6.40
2022-09-14T17:31:42.716Z,5.60
2022-09-14T17:36:50.916Z,7.30
2022-09-14T17:42:00.041Z,6.40
2022-09-14T17:47:08.300Z,6.80
2022-09-14T17:52:15.878Z,6.80
2022-09-14T17:57:26.276Z,8.70
2022-09-14T18:02:33.403Z,6.80
2022-09-14T18:07:40.532Z,7.40
2022-09-14T18:12:49.021Z,6.50
2022-09-14T18:17:57.222Z,8.40
2022-09-14T18:23:05.026Z,7.00
2022-09-14T18:28:13.269Z,9.10
2022-09-14T18:33:20.758Z,6.90
2022-09-14T18:38:33.998Z,8.50
2022-09-14T18:43:46.469Z,9.50
2022-09-14T18:49:12.198Z,10.50
2022-09-14T18:54:28.615Z,11.50
2022-09-14T18:59:39.754Z,8.50
2022-09-14T19:04:51.203Z,9.90
2022-09-14T19:10:01.169Z,8.80
2022-09-14T19:15:15.745Z,10.60
2022-09-14T19:31:30.945Z,9.30
2022-09-14T19:36:41.866Z,10.40
2022-09-14T19:41:50.444Z,10.80
2022-09-14T19:47:01.547Z,10.00
2022-09-14T19:52:09.866Z,10.00
2022-09-14T19:57:17.995Z,8.80
2022-09-14T20:02:28.246Z,8.50
2022-09-14T20:07:36.134Z,8.20
2022-09-14T20:12:47.067Z,9.70
2022-09-14T20:17:57.914Z,9.10
2022-09-14T20:23:06.501Z,8.80
2022-09-14T20:28:14.257Z,10.10
2022-09-14T20:33:21.720Z,8.60
2022-09-14T20:38:31.235Z,9.20
2022-09-14T20:43:41.553Z,11.00
2022-09-14T20:48:53.057Z,10.80
2022-09-14T20:54:01.289Z,10.60
2022-09-14T20:59:12.181Z,12.00
2022-09-14T21:04:22.283Z,11.60
2022-09-14T21:09:32.116Z,14.60
2022-09-14T21:14:48.868Z,10.70
2022-09-14T21:19:56.892Z,11.40
2022-09-14T21:25:11.506Z,9.90
2022-09-14T21:30:20.045Z,11.80
2022-09-14T21:35:32.885Z,11.70
2022-09-14T21:40:46.937Z,11.00
2022-09-14T21:45:54.817Z,13.30
2022-09-14T21:51:08.973Z,10.90
2022-09-14T21:56:17.707Z,11.40
2022-09-14T22:01:26.418Z,12.80
2022-09-14T22:06:34.829Z,12.30
2022-09-14T22:11:45.760Z,12.10
2022-09-14T22:16:53.314Z,12.40
2022-09-14T22:27:23.551Z,10.40
2022-09-14T22:32:39.293Z,12.90
2022-09-14T22:37:51.097Z,17.30
2022-09-14T22:42:59.633Z,14.20
2022-09-14T22:48:10.826Z,14.40
2022-09-14T22:53:22.496Z,12.20
2022-09-14T22:58:45.856Z,12.70
2022-09-14T23:03:58.614Z,12.60
2022-09-14T23:09:09.322Z,13.60
2022-09-14T23:14:32.390Z,13.30
2022-09-14T23:19:49.103Z,14.10
2022-09-14T23:24:56.199Z,14.90
2022-09-14T23:30:04.119Z,13.90
2022-09-14T23:35:13.852Z,15.50
2022-09-14T23:40:22.049Z,13.80
2022-09-14T23:45:30.526Z,14.70
2022-09-14T23:50:39.443Z,12.70
2022-09-14T23:55:47.108Z,15.90
